Terminal Aerodrome Forecast
Issued by NWS Sterling, VA

Current Version | Previous Version | Graphics & Text | Print | Product List | Glossary On
Versions: 1 2 3 4 5 6 7 8 9 10 11 12 13 14 15 16 17
000
FTUS41 KLWX 230540
TAFMRB
TAF
KMRB 230540Z 2306/2406 17007KT P6SM OVC070
     FM230700 18008KT 2SM -SHRA SCT008 BKN015 WS020/20045KT
     FM231200 25009KT P6SM BKN050
     FM231700 26013G22KT P6SM SCT050
     FM240000 26011G18KT P6SM FEW045=

USA.gov is the U.S. government's official web portal to all federal, state and local government web resources and services.